Time;durP1;ratioP1;P1;durP2;ratioP2;P2;SDS_P1;SDS_P2;PMS_P1;PMS_P2;Temp;Humidity;BMP_temperature;BMP_pressure;BME280_temperature;BME280_humidity;BME280_pressure;Samples;Min_cycle;Max_cycle;Signal;HPM_P1;HPM_P2
2022/04/18 00:16:11;;;;;;;;;;;;;;;6.43;60.35;102201.81;5026056;28;20036;-69
2022/04/18 00:18:36;;;;;;;10.70;6.43;;;;;;;6.33;60.11;102191.00;5025470;28;19925;-69
2022/04/18 00:21:02;;;;;;;10.48;7.07;;;;;;;6.35;60.18;102200.47;4993898;28;20033;-70
2022/04/18 00:23:27;;;;;;;11.68;6.63;;;;;;;6.35;60.18;102200.47;5025439;28;20454;-69
2022/04/18 00:25:52;;;;;;;10.15;5.55;;;;;;;6.32;60.99;102194.56;5024988;28;20052;-69
2022/04/18 00:28:18;;;;;;;12.40;6.63;;;;;;;6.29;60.77;102187.72;5026325;28;20044;-69
2022/04/18 00:30:43;;;;;;;10.05;6.97;;;;;;;6.27;60.88;102197.47;5027037;28;20103;-69
2022/04/18 00:33:09;;;;;;;10.93;7.05;;;;;;;6.24;60.90;102186.28;5023780;28;20040;-69
2022/04/18 00:35:35;;;;;;;10.10;6.75;;;;;;;6.15;61.56;102177.19;5027237;28;20072;-69
2022/04/18 00:38:01;;;;;;;11.43;6.88;;;;;;;6.18;61.52;102185.72;5024933;28;20067;-69
2022/04/18 00:40:27;;;;;;;9.30;6.25;;;;;;;6.13;62.75;102182.50;5026363;28;20057;-69
2022/04/18 00:43:04;;;;;;;11.88;7.13;;;;;;;5.98;62.10;102165.03;5025547;28;20056;-69
2022/04/18 00:45:30;;;;;;;10.77;6.18;;;;;;;6.04;62.66;102179.59;5027540;28;20039;-69
2022/04/18 00:47:56;;;;;;;13.88;6.85;;;;;;;5.94;62.46;102173.97;5028526;28;20017;-69
2022/04/18 00:50:22;;;;;;;10.60;6.57;;;;;;;5.92;63.13;102167.97;5026498;28;20033;-69
2022/04/18 00:52:51;;;;;;;12.45;6.85;;;;;;;5.89;63.12;102165.53;5028142;28;20029;-69
2022/04/18 00:55:18;;;;;;;14.38;7.43;;;;;;;5.94;63.26;102173.97;5025599;28;20025;-69
2022/04/18 00:57:44;;;;;;;12.77;7.05;;;;;;;5.90;63.69;102173.31;5026327;28;20387;-69
2022/04/18 01:00:12;;;;;;;13.98;6.72;;;;;;;5.86;64.10;102170.97;5026523;28;20033;-70
2022/04/18 01:02:38;;;;;;;12.50;6.88;;;;;;;5.83;63.64;102168.50;5025470;28;20037;-72
2022/04/18 01:05:03;;;;;;;11.50;6.63;;;;;;;5.82;64.38;102165.06;5026858;28;20049;-72
2022/04/18 01:07:30;;;;;;;11.05;7.18;;;;;;;5.76;63.77;102160.97;5024405;28;20367;-72
2022/04/18 01:09:55;;;;;;;14.88;8.07;;;;;;;5.73;64.13;102163.78;5027527;28;20087;-72
2022/04/18 01:12:20;;;;;;;11.02;7.70;;;;;;;5.61;64.55;102148.75;5026825;28;20427;-72
2022/04/18 01:14:49;;;;;;;20.15;10.25;;;;;;;5.60;64.75;102149.69;5026690;28;20123;-72
2022/04/18 01:17:15;;;;;;;11.55;6.85;;;;;;;5.64;65.58;102155.59;5028282;28;20080;-72
2022/04/18 01:19:42;;;;;;;12.15;6.63;;;;;;;5.62;65.48;102153.06;5025374;28;20072;-72
2022/04/18 01:22:12;;;;;;;17.40;8.82;;;;;;;5.59;65.80;102152.41;5027071;28;20021;-71
2022/04/18 01:30:07;;;;;;;10.02;6.78;;;;;;;5.48;66.57;102151.22;5026155;28;20563;-72
2022/04/18 01:32:33;;;;;;;11.30;8.27;;;;;;;5.44;66.59;102146.22;5028710;28;20029;-72
2022/04/18 01:34:58;;;;;;;13.48;7.00;;;;;;;5.42;66.39;102150.69;5017968;28;20068;-72
2022/04/18 01:37:25;;;;;;;12.77;7.10;;;;;;;5.43;66.26;102149.78;5026307;28;20536;-72
2022/04/18 01:39:50;;;;;;;16.00;8.25;;;;;;;5.44;66.13;102141.00;5023952;28;20486;-72
2022/04/18 01:42:16;;;;;;;13.98;7.75;;;;;;;5.44;66.63;102146.22;5025090;28;20029;-71
2022/04/18 01:44:42;;;;;;;12.13;7.68;;;;;;;5.43;66.48;102141.94;5024534;28;20032;-72
2022/04/18 01:47:07;;;;;;;14.77;7.32;;;;;;;5.32;66.85;102119.81;5007251;28;20025;-72
2022/04/18 01:49:33;;;;;;;12.40;6.82;;;;;;;5.40;66.94;102131.63;5021860;28;20080;-71
2022/04/18 01:51:59;;;;;;;12.02;7.03;;;;;;;5.43;67.38;102136.69;5026712;28;20025;-72
2022/04/18 01:54:24;;;;;;;13.45;8.45;;;;;;;5.41;67.68;102131.53;5030430;28;20025;-72
2022/04/18 01:56:50;;;;;;;15.63;7.60;;;;;;;5.39;68.06;102129.94;5030757;28;20361;-72
2022/04/18 01:59:15;;;;;;;13.35;7.78;;;;;;;5.41;67.18;102128.09;5029703;28;20409;-72
2022/04/18 02:01:41;;;;;;;13.35;7.47;;;;;;;5.30;67.93;102115.59;5028426;28;20033;-72
2022/04/18 02:04:07;;;;;;;11.15;6.85;;;;;;;5.35;67.84;102121.41;5027979;28;20076;-71
2022/04/18 02:06:33;;;;;;;10.52;7.03;;;;;;;5.25;68.17;102118.47;5029093;28;20025;-71
2022/04/18 02:08:58;;;;;;;16.08;8.15;;;;;;;5.30;67.94;102121.66;5026569;28;20032;-71
2022/04/18 02:11:24;;;;;;;11.95;7.10;;;;;;;5.28;68.57;102123.50;5030176;28;20033;-73
2022/04/18 02:13:49;;;;;;;12.95;7.53;;;;;;;5.27;68.02;102107.88;5031719;28;20433;-72
2022/04/18 02:16:15;;;;;;;19.02;8.57;;;;;;;5.22;68.68;102105.53;5029099;28;20910;-72
2022/04/18 02:18:40;;;;;;;11.40;7.32;;;;;;;5.26;67.97;102114.91;5005498;28;20054;-72
2022/04/18 02:21:08;;;;;;;12.88;7.07;;;;;;;5.25;68.17;102117.63;5029910;28;20056;-72
2022/04/18 02:23:33;;;;;;;12.52;7.25;;;;;;;5.24;69.10;102111.50;5030549;28;20116;-71
2022/04/18 02:25:58;;;;;;;12.95;8.10;;;;;;;5.24;68.65;102106.28;5028968;28;20545;-71
2022/04/18 02:28:24;;;;;;;11.43;7.45;;;;;;;5.23;68.38;102098.53;5027257;28;20117;-71
2022/04/18 02:30:49;;;;;;;16.67;8.90;;;;;;;5.21;69.37;102106.47;5031403;28;20512;-71
2022/04/18 02:33:14;;;;;;;15.52;8.18;;;;;;;5.20;68.20;102096.06;5027774;28;20557;-71
2022/04/18 02:35:40;;;;;;;13.38;8.25;;;;;;;5.18;69.16;102096.16;5030065;28;20459;-71
2022/04/18 02:38:05;;;;;;;11.90;7.68;;;;;;;5.15;69.35;102096.31;5024568;28;20037;-71
2022/04/18 02:40:30;;;;;;;12.30;7.78;;;;;;;5.13;69.75;102088.53;5023927;28;20030;-71
2022/04/18 02:42:56;;;;;;;14.38;7.30;;;;;;;5.09;69.10;102086.19;5028186;28;20095;-71
2022/04/18 02:45:21;;;;;;;14.23;8.32;;;;;;;5.06;69.22;102084.59;5029148;28;20025;-71
2022/04/18 02:47:47;;;;;;;16.02;8.25;;;;;;;5.00;69.92;102077.06;5030032;28;20372;-71
2022/04/18 02:50:13;;;;;;;15.32;8.55;;;;;;;5.01;69.87;102088.38;5019521;28;20087;-72
2022/04/18 02:52:39;;;;;;;19.23;9.00;;;;;;;4.99;69.90;102079.75;5029226;28;20409;-72
2022/04/18 02:55:05;;;;;;;14.60;7.68;;;;;;;4.95;70.42;102079.94;5029025;28;20033;-72
2022/04/18 02:57:31;;;;;;;15.07;8.27;;;;;;;4.92;69.81;102074.00;5027093;28;20547;-72
2022/04/18 02:59:57;;;;;;;18.38;9.00;;;;;;;4.82;70.78;102076.31;5026695;28;20125;-71
2022/04/18 03:02:22;;;;;;;16.23;8.63;;;;;;;4.77;70.78;102072.22;5027712;28;20567;-71
2022/04/18 03:04:48;;;;;;;14.23;8.45;;;;;;;4.77;71.66;102077.47;5030328;28;20018;-71
2022/04/18 03:07:13;;;;;;;14.32;9.00;;;;;;;4.74;72.13;102070.63;5025414;28;20022;-71
2022/04/18 03:09:39;;;;;;;13.65;7.60;;;;;;;4.66;72.13;102071.06;5030335;28;20025;-71
2022/04/18 03:12:06;;;;;;;14.93;8.13;;;;;;;4.66;72.47;102064.94;5029927;28;20033;-72
2022/04/18 03:14:32;;;;;;;13.40;7.78;;;;;;;4.66;72.47;102070.19;5029541;28;20534;-72
2022/04/18 03:16:58;;;;;;;16.27;8.05;;;;;;;4.65;71.63;102063.28;5028705;28;20397;-72
2022/04/18 03:19:24;;;;;;;14.77;8.23;;;;;;;4.60;72.50;102062.69;5028426;28;20501;-72
2022/04/18 03:21:50;;;;;;;13.57;8.38;;;;;;;4.58;71.93;102059.31;5026737;28;20437;-71
2022/04/18 03:24:15;;;;;;;14.10;7.55;;;;;;;4.54;71.90;102061.22;5029026;28;20033;-71
2022/04/18 03:26:41;;;;;;;14.13;7.93;;;;;;;4.52;72.28;102060.47;5029315;28;20022;-71
2022/04/18 03:29:06;;;;;;;14.82;8.13;;;;;;;4.51;73.08;102058.78;5026419;28;20037;-71
2022/04/18 03:31:32;;;;;;;15.90;7.65;;;;;;;4.49;72.59;102061.47;5028314;28;20440;-72
2022/04/18 03:33:57;;;;;;;15.40;8.10;;;;;;;4.39;72.36;102047.19;5028689;28;20030;-71
2022/04/18 03:41:50;;;;;;;12.13;7.25;;;;;;;4.17;73.50;102041.41;5026695;28;20129;-70
2022/04/18 03:44:18;;;;;;;15.60;7.07;;;;;;;4.21;73.76;102051.63;5015375;28;20117;-72
2022/04/18 03:46:43;;;;;;;13.55;8.10;;;;;;;4.11;74.29;102046.00;5027634;28;20075;-72
2022/04/18 03:49:09;;;;;;;13.43;8.40;;;;;;;4.04;74.69;102043.78;5016496;28;20037;-71
2022/04/18 03:51:34;;;;;;;12.10;6.75;;;;;;;4.01;74.80;102047.41;5025912;28;20038;-71
2022/04/18 03:53:59;;;;;;;15.65;7.82;;;;;;;3.99;75.42;102056.25;5015089;28;20033;-71
2022/04/18 03:56:25;;;;;;;14.65;8.18;;;;;;;3.96;75.46;102048.56;5019747;28;20473;-71
2022/04/18 03:58:50;;;;;;;15.77;8.10;;;;;;;3.95;76.13;102054.72;5022106;28;20080;-71
2022/04/18 04:01:15;;;;;;;14.95;8.02;;;;;;;3.97;75.35;102045.88;5027964;28;20080;-71
2022/04/18 04:03:41;;;;;;;12.82;8.00;;;;;;;3.95;75.46;102049.50;5025080;28;20156;-71
2022/04/18 04:06:06;;;;;;;16.98;8.48;;;;;;;3.94;75.27;102039.94;5028312;28;20103;-72
2022/04/18 04:08:32;;;;;;;17.70;7.90;;;;;;;4.00;75.33;102043.09;4989323;28;20040;-71
2022/04/18 04:10:58;;;;;;;14.38;8.32;;;;;;;4.01;76.16;102047.41;5026675;28;20112;-71
2022/04/18 04:13:23;;;;;;;15.85;8.20;;;;;;;3.98;75.45;102039.72;5024456;28;20223;-71
2022/04/18 04:15:49;;;;;;;15.23;8.55;;;;;;;4.00;75.52;102047.47;5022771;28;20063;-71
2022/04/18 04:18:14;;;;;;;15.40;7.53;;;;;;;4.01;75.47;102041.34;5026905;28;20088;-71
2022/04/18 04:20:39;;;;;;;15.50;8.65;;;;;;;3.96;75.22;102030.28;5027839;28;20055;-71
2022/04/18 04:23:05;;;;;;;17.15;9.05;;;;;;;3.98;75.43;102039.72;5009726;28;20110;-72
2022/04/18 04:25:30;;;;;;;16.10;7.97;;;;;;;3.96;75.22;102043.34;5024361;28;20489;-72
2022/04/18 04:27:56;;;;;;;15.05;8.32;;;;;;;3.86;75.75;102030.75;5025437;28;20029;-72
2022/04/18 04:30:21;;;;;;;13.13;7.25;;;;;;;3.86;76.35;102042.97;5026594;28;20076;-72
2022/04/18 04:32:48;;;;;;;16.77;8.25;;;;;;;3.79;76.09;102046.78;5025425;28;20794;-72
2022/04/18 04:35:14;;;;;;;15.90;8.48;;;;;;;3.77;76.69;102040.78;5026224;28;20033;-72
2022/04/18 04:37:39;;;;;;;12.13;7.90;;;;;;;3.68;76.94;102029.03;5023052;28;20061;-72
2022/04/18 04:40:06;;;;;;;12.38;7.60;;;;;;;3.71;77.27;102029.75;5012784;28;20034;-72
2022/04/18 04:42:31;;;;;;;14.27;8.13;;;;;;;3.69;77.71;102038.59;5024874;28;20032;-72
2022/04/18 04:44:57;;;;;;;14.82;8.38;;;;;;;3.69;78.04;102028.97;5023226;28;20029;-72
2022/04/18 04:47:23;;;;;;;14.73;8.27;;;;;;;3.68;78.02;102032.53;5026290;28;20026;-72
2022/04/18 04:49:48;;;;;;;13.27;7.32;;;;;;;3.59;77.74;102012.06;5021932;28;20474;-71
2022/04/18 04:52:14;;;;;;;18.67;8.05;;;;;;;3.67;78.03;102036.03;5026664;28;20525;-71
2022/04/18 04:54:39;;;;;;;13.23;8.38;;;;;;;3.68;77.95;102027.28;5021685;28;20022;-71
2022/04/18 04:57:05;;;;;;;11.82;7.97;;;;;;;3.64;78.07;102023.16;5025966;28;20033;-71
2022/04/18 04:59:30;;;;;;;15.30;7.95;;;;;;;3.69;78.06;102023.75;5007806;28;20029;-71
2022/04/18 05:01:55;;;;;;;12.25;7.25;;;;;;;3.71;78.61;102042.81;5024336;28;20498;-71
2022/04/18 05:04:24;;;;;;;14.80;9.02;;;;;;;3.69;79.00;102047.25;5027855;28;20486;-71
2022/04/18 05:06:49;;;;;;;13.80;8.57;;;;;;;3.70;78.41;102046.34;5024191;28;20144;-71
2022/04/18 05:09:14;;;;;;;13.50;8.18;;;;;;;3.77;78.63;102041.66;5023800;28;20175;-71
2022/04/18 05:11:40;;;;;;;12.18;7.35;;;;;;;3.83;78.38;102048.31;5025288;28;20565;-71
2022/04/18 05:14:06;;;;;;;16.58;7.70;;;;;;;3.89;78.24;102048.03;5028082;28;20021;-71
2022/04/18 05:16:31;;;;;;;16.23;8.43;;;;;;;3.86;78.00;102050.81;5023772;28;20144;-71
2022/04/18 05:18:56;;;;;;;16.90;7.70;;;;;;;3.86;78.29;102046.41;5007767;28;20049;-71
2022/04/18 05:21:22;;;;;;;13.15;7.80;;;;;;;3.88;78.70;102044.56;5021847;28;20064;-73
2022/04/18 05:23:48;;;;;;;12.40;7.93;;;;;;;3.85;79.08;102054.31;5020253;28;20188;-72
2022/04/18 05:26:13;;;;;;;14.75;8.15;;;;;;;3.84;79.51;102052.66;5026399;28;20053;-71
2022/04/18 05:28:39;;;;;;;12.90;9.25;;;;;;;3.79;79.43;102033.72;5021962;28;20108;-71
2022/04/18 05:31:04;;;;;;;14.85;8.52;;;;;;;3.92;79.70;102045.28;5014152;28;20042;-72
2022/04/18 05:33:30;;;;;;;16.67;9.55;;;;;;;3.96;79.69;102046.78;5028294;28;20036;-70
2022/04/18 05:35:55;;;;;;;14.27;9.00;;;;;;;4.03;79.41;102047.31;5028847;28;20033;-70
2022/04/18 05:38:20;;;;;;;14.30;8.77;;;;;;;4.13;79.43;102044.16;5011333;28;20495;-70
2022/04/18 05:40:46;;;;;;;15.32;8.38;;;;;;;4.25;79.16;102039.25;5028332;28;20029;-70
2022/04/18 05:43:11;;;;;;;14.20;8.45;;;;;;;4.33;78.61;102040.53;5028062;28;20329;-70
2022/04/18 05:45:38;;;;;;;15.48;8.07;;;;;;;4.42;78.99;102047.06;5028525;28;20037;-70
2022/04/18 05:48:04;;;;;;;15.02;9.00;;;;;;;4.53;78.68;102044.72;5021065;28;20022;-70
2022/04/18 05:50:29;;;;;;;16.23;8.77;;;;;;;4.58;79.12;102041.00;5028977;28;20494;-70
2022/04/18 05:52:55;;;;;;;15.05;8.93;;;;;;;4.73;77.96;102055.88;5027736;28;20041;-71
2022/04/18 05:55:21;;;;;;;15.65;9.27;;;;;;;4.68;77.72;102029.97;5012090;28;20065;-71
2022/04/18 05:57:48;;;;;;;16.08;9.05;;;;;;;4.92;78.11;102061.81;5016108;28;20191;-71
2022/04/18 06:00:14;;;;;;;17.38;10.05;;;;;;;5.00;77.82;102060.53;5026142;28;20472;-71
2022/04/18 06:02:39;;;;;;;12.38;8.80;;;;;;;5.04;77.70;102046.34;5028687;28;20148;-71
2022/04/18 06:05:05;;;;;;;17.65;9.73;;;;;;;5.04;76.83;102028.03;5027938;28;20511;-71
2022/04/18 06:07:31;;;;;;;14.95;8.55;;;;;;;5.19;76.53;102035.03;5012147;28;20033;-71
2022/04/18 06:09:56;;;;;;;13.85;8.73;;;;;;;5.36;76.08;102048.03;5010743;28;20079;-71
2022/04/18 06:12:22;;;;;;;13.20;8.63;;;;;;;5.38;75.68;102039.22;5021667;28;20026;-71
2022/04/18 06:14:47;;;;;;;16.70;9.20;;;;;;;5.56;75.88;102054.72;5028160;28;20037;-71
2022/04/18 06:17:13;;;;;;;17.38;9.50;;;;;;;5.70;75.57;102053.09;5025870;28;20060;-71
2022/04/18 06:19:38;;;;;;;15.07;8.38;;;;;;;5.83;74.86;102055.84;5023957;28;20188;-71
2022/04/18 06:22:04;;;;;;;16.63;9.73;;;;;;;5.70;74.42;102024.28;5027877;28;20029;-71
2022/04/18 06:24:30;;;;;;;19.75;9.60;;;;;;;6.03;74.36;102052.09;5027763;28;20084;-71
2022/04/18 06:26:55;;;;;;;17.05;9.48;;;;;;;6.11;74.38;102066.41;5020486;28;20497;-71
2022/04/18 06:29:21;;;;;;;15.73;8.70;;;;;;;6.24;74.26;102044.72;5023471;28;20124;-71
2022/04/18 06:31:46;;;;;;;15.27;8.95;;;;;;;6.41;73.71;102062.91;5010528;28;20056;-71
2022/04/18 06:34:12;;;;;;;15.45;8.95;;;;;;;6.51;73.19;102047.44;5013942;28;20087;-71
2022/04/18 06:36:38;;;;;;;15.25;8.77;;;;;;;6.76;72.22;102067.78;5023806;28;20033;-71
2022/04/18 06:39:04;;;;;;;16.85;8.98;;;;;;;6.92;71.98;102054.53;5021716;28;20037;-71
2022/04/18 06:41:29;;;;;;;11.02;8.25;;;;;;;7.07;71.74;102064.06;5021708;28;20034;-71
2022/04/18 06:43:55;;;;;;;17.13;9.75;;;;;;;7.21;70.73;102064.03;5007662;28;20041;-71
2022/04/18 06:46:20;;;;;;;14.80;8.30;;;;;;;7.34;70.89;102060.63;5025628;28;20070;-71
2022/04/18 06:48:46;;;;;;;14.45;9.82;;;;;;;7.50;70.45;102048.16;5022538;28;20102;-71
2022/04/18 06:51:11;;;;;;;14.07;8.35;;;;;;;7.75;70.54;102055.28;5019778;28;20073;-71
2022/04/18 06:53:36;;;;;;;12.43;8.52;;;;;;;7.83;69.13;102058.22;5023734;28;20129;-71
2022/04/18 06:58:46;;;;;;;15.18;8.65;;;;;;;8.07;68.59;102061.94;5020858;28;20124;-71
2022/04/18 07:01:11;;;;;;;12.10;8.15;;;;;;;8.50;67.66;102064.31;5020589;28;20049;-72
2022/04/18 07:03:37;;;;;;;13.50;8.48;;;;;;;9.05;66.37;102061.22;5021550;28;20897;-71
2022/04/18 07:06:02;;;;;;;17.17;9.85;;;;;;;9.71;64.65;102052.91;5023219;28;20297;-71
2022/04/18 07:08:28;;;;;;;15.60;8.35;;;;;;;10.03;62.75;102049.66;5017612;28;20044;-71
2022/04/18 07:10:53;;;;;;;14.25;8.60;;;;;;;10.38;62.23;102046.97;5021530;28;20044;-73
2022/04/18 07:13:18;;;;;;;13.98;8.32;;;;;;;10.57;61.80;102042.91;5025298;28;20124;-72
2022/04/18 07:15:44;;;;;;;13.90;9.38;;;;;;;10.92;60.31;102050.66;5025130;28;20037;-71
2022/04/18 07:18:09;;;;;;;14.88;8.95;;;;;;;11.27;60.66;102054.91;5024040;28;20045;-71
2022/04/18 07:20:35;;;;;;;14.88;9.13;;;;;;;11.99;57.90;102050.75;5023201;28;20029;-72
2022/04/18 07:23:00;;;;;;;15.20;9.10;;;;;;;11.94;57.64;102049.34;5006131;28;20034;-72
2022/04/18 07:25:26;;;;;;;14.68;8.82;;;;;;;12.46;57.22;102062.56;5006459;28;20029;-72
2022/04/18 07:27:51;;;;;;;11.32;8.20;;;;;;;12.48;55.68;102042.09;5016066;28;20032;-72
2022/04/18 07:30:16;;;;;;;11.63;8.48;;;;;;;13.07;56.99;102056.34;5019311;28;20033;-72
2022/04/18 07:32:43;;;;;;;13.25;7.65;;;;;;;13.42;54.79;102047.06;5022612;28;20025;-72
2022/04/18 07:35:10;;;;;;;11.95;8.18;;;;;;;13.30;52.71;102045.53;5026504;28;20034;-72
2022/04/18 07:37:36;;;;;;;10.25;7.45;;;;;;;13.80;51.73;102048.00;5018106;28;20179;-72
2022/04/18 07:40:03;;;;;;;9.57;6.60;;;;;;;13.84;50.69;102036.16;5020630;28;20082;-72
2022/04/18 07:42:28;;;;;;;10.68;7.30;;;;;;;13.62;50.23;102041.75;5021492;28;20032;-72
2022/04/18 07:44:54;;;;;;;12.63;7.03;;;;;;;13.49;51.10;102037.56;5003710;28;20030;-72
2022/04/18 07:47:20;;;;;;;10.63;7.70;;;;;;;13.93;50.59;102050.38;5019469;28;20068;-72
2022/04/18 07:49:45;;;;;;;9.13;6.93;;;;;;;13.78;50.53;102047.31;5020799;28;20051;-72
2022/04/18 07:52:12;;;;;;;10.95;7.18;;;;;;;13.46;50.98;102045.00;5021828;28;20037;-71
2022/04/18 07:54:38;;;;;;;8.80;6.75;;;;;;;14.14;50.70;102042.22;5020965;28;20495;-71
2022/04/18 07:57:04;;;;;;;12.48;7.38;;;;;;;14.72;48.66;102050.00;5017709;28;20534;-71
2022/04/18 07:59:31;;;;;;;11.55;7.22;;;;;;;14.52;48.57;102051.88;5023163;28;20034;-72
2022/04/18 08:01:56;;;;;;;9.20;6.82;;;;;;;14.58;50.26;102029.22;5021788;28;20052;-74
2022/04/18 08:04:21;;;;;;;10.25;7.18;;;;;;;15.18;48.05;102032.22;5022492;28;20053;-72
2022/04/18 08:06:47;;;;;;;11.57;7.25;;;;;;;14.54;49.96;102049.91;5004184;28;20030;-72
2022/04/18 08:09:12;;;;;;;13.75;7.93;;;;;;;14.90;48.65;102035.91;5018501;28;20539;-72
2022/04/18 08:11:37;;;;;;;10.88;7.22;;;;;;;15.19;47.41;102049.84;5022170;28;20108;-72
2022/04/18 08:14:03;;;;;;;10.63;7.55;;;;;;;15.10;47.90;102018.00;5023344;28;20057;-72
2022/04/18 08:16:28;;;;;;;8.38;6.93;;;;;;;14.90;48.17;102033.25;5002206;28;20417;-72
2022/04/18 08:18:55;;;;;;;10.52;6.60;;;;;;;15.80;46.67;102042.09;5018246;28;20093;-72
2022/04/18 08:21:20;;;;;;;9.38;6.90;;;;;;;16.03;46.33;102039.75;5016240;28;20040;-73
2022/04/18 08:23:47;;;;;;;10.77;7.28;;;;;;;15.35;47.41;102033.22;5022298;28;20036;-73
2022/04/18 08:26:13;;;;;;;9.52;6.93;;;;;;;15.37;47.23;102031.25;5019904;28;20082;-73
2022/04/18 08:28:39;;;;;;;8.80;6.38;;;;;;;15.50;47.59;102036.16;5019395;28;20025;-72
2022/04/18 08:31:06;;;;;;;10.50;6.95;;;;;;;15.70;47.06;102028.00;5021241;28;20029;-73
2022/04/18 08:33:31;;;;;;;9.05;6.88;;;;;;;16.01;46.96;102023.94;5023486;28;20029;-73
2022/04/18 08:35:57;;;;;;;8.68;7.20;;;;;;;16.59;46.41;102014.41;5003219;28;20025;-73
2022/04/18 08:38:24;;;;;;;10.00;6.97;;;;;;;16.94;45.76;102028.53;5017336;28;20273;-73
2022/04/18 08:40:50;;;;;;;10.93;7.10;;;;;;;17.08;45.67;102034.22;5026171;28;20025;-73
2022/04/18 08:43:17;;;;;;;10.45;7.43;;;;;;;17.26;44.31;102034.91;5024131;28;20034;-73
2022/04/18 08:45:42;;;;;;;9.60;6.50;;;;;;;17.73;43.61;102026.25;5017361;28;20032;-73
2022/04/18 08:53:37;;;;;;;9.63;6.25;;;;;;;17.48;41.80;102022.75;5024036;28;20448;-74
2022/04/18 08:56:03;;;;;;;8.95;6.60;;;;;;;18.14;42.49;102022.69;5022613;28;20029;-73
2022/04/18 08:58:29;;;;;;;9.38;5.95;;;;;;;17.55;41.88;102012.22;5025062;28;20139;-73
2022/04/18 09:00:59;;;;;;;8.13;6.47;;;;;;;17.98;40.69;102027.06;5027416;28;20405;-73
2022/04/18 09:03:24;;;;;;;8.90;6.18;;;;;;;18.20;41.80;102020.16;5028815;28;20029;-73
2022/04/18 09:06:03;;;;;;;10.80;6.40;;;;;;;18.22;42.21;102023.50;5028084;28;20567;-72
2022/04/18 09:08:32;;;;;;;7.88;6.28;;;;;;;19.00;40.69;102023.66;5026722;28;20476;-73
2022/04/18 09:10:58;;;;;;;11.07;6.82;;;;;;;18.49;42.27;102022.22;5027249;28;20060;-73
2022/04/18 09:13:24;;;;;;;7.75;6.15;;;;;;;18.86;41.90;102028.78;5027291;28;20065;-73
2022/04/18 09:15:49;;;;;;;8.05;5.90;;;;;;;19.32;39.81;102012.72;5027311;28;20026;-73
2022/04/18 09:18:17;;;;;;;10.80;6.15;;;;;;;19.97;38.99;102015.84;5023245;28;20061;-72
2022/04/18 09:20:47;;;;;;;7.90;6.20;;;;;;;20.54;38.98;102023.22;5026432;28;20420;-73
2022/04/18 09:23:27;;;;;;;7.07;6.13;;;;;;;19.86;38.61;102017.16;5026790;28;20017;-73
2022/04/18 09:25:54;;;;;;;8.35;6.35;;;;;;;20.13;40.25;102020.19;5028651;28;20393;-72
2022/04/18 09:28:27;;;;;;;10.02;6.30;;;;;;;20.20;39.35;102010.41;5020448;28;20056;-72
2022/04/18 09:31:04;;;;;;;8.18;6.30;;;;;;;20.62;37.62;102014.28;5022846;28;20108;-72
2022/04/18 09:33:43;;;;;;;7.60;6.28;;;;;;;20.35;37.56;102007.72;5025101;28;20087;-72
2022/04/18 09:36:16;;;;;;;8.10;5.93;;;;;;;20.79;37.75;102008.69;5028692;28;20087;-72
2022/04/18 09:38:51;;;;;;;7.40;6.05;;;;;;;20.57;38.54;102005.94;5027753;28;20037;-74
2022/04/18 09:41:28;;;;;;;7.35;6.13;;;;;;;20.73;37.62;102010.25;5026341;28;20021;-73
2022/04/18 09:43:55;;;;;;;9.40;5.63;;;;;;;19.85;38.12;101996.72;5029244;28;20064;-72
2022/04/18 09:46:21;;;;;;;8.55;5.72;;;;;;;20.82;38.60;102003.78;5021420;28;20026;-72
2022/04/18 09:48:48;;;;;;;8.80;6.03;;;;;;;20.25;38.76;102004.47;5025234;28;20520;-70
2022/04/18 09:51:24;;;;;;;8.18;5.40;;;;;;;20.30;38.09;102007.44;5027972;28;20121;-72
2022/04/18 09:53:52;;;;;;;10.18;6.00;;;;;;;21.24;37.26;102001.28;5027140;28;20087;-72
2022/04/18 09:56:20;;;;;;;7.75;6.05;;;;;;;19.97;37.24;101989.06;5024704;28;20039;-72
2022/04/18 09:58:45;;;;;;;8.55;6.15;;;;;;;20.52;37.76;102005.66;5026802;28;20044;-72
2022/04/18 10:01:12;;;;;;;7.93;5.82;;;;;;;20.49;37.50;101993.47;5023779;28;20030;-71
2022/04/18 10:03:38;;;;;;;7.47;5.78;;;;;;;21.13;35.76;101994.59;4992168;28;20087;-71
2022/04/18 10:06:05;;;;;;;6.43;5.32;;;;;;;21.19;35.85;101993.81;5026108;28;20025;-72
2022/04/18 10:08:32;;;;;;;7.78;5.75;;;;;;;22.41;35.28;101998.00;5039170;28;20033;-72
2022/04/18 10:10:59;;;;;;;7.90;5.65;;;;;;;21.81;36.84;101986.06;5025760;28;20364;-72
2022/04/18 10:13:28;;;;;;;8.43;5.95;;;;;;;21.91;35.90;101984.69;5025021;28;20104;-72
2022/04/18 10:15:56;;;;;;;7.70;5.93;;;;;;;21.66;36.38;101992.34;5025398;28;20078;-72
2022/04/18 10:18:22;;;;;;;10.85;5.38;;;;;;;21.89;35.64;101993.97;5022693;28;20061;-72
2022/04/18 10:21:19;;;;;;;6.10;5.45;;;;;;;20.82;37.28;101968.91;5025643;28;20536;-72
2022/04/18 10:24:07;;;;;;;7.88;5.93;;;;;;;21.00;37.04;101983.72;5024532;28;20056;-72
2022/04/18 10:26:33;;;;;;;7.18;5.40;;;;;;;22.16;35.19;101984.19;5024902;28;20109;-72
2022/04/18 10:29:04;;;;;;;6.55;5.38;;;;;;;21.68;36.37;101979.56;5026588;28;20017;-72
2022/04/18 10:31:34;;;;;;;8.20;5.70;;;;;;;22.49;35.39;101968.22;5023447;28;20030;-72
2022/04/18 10:34:00;;;;;;;10.90;5.57;;;;;;;22.39;35.08;101983.91;5026643;28;20021;-72
2022/04/18 10:36:33;;;;;;;7.70;5.45;;;;;;;22.04;35.21;101977.72;5022667;28;20041;-72
2022/04/18 10:39:07;;;;;;;8.27;6.25;;;;;;;22.53;35.08;101985.59;5026117;28;20081;-72
2022/04/18 10:41:36;;;;;;;7.25;5.97;;;;;;;21.66;35.24;101984.28;5022905;28;20025;-72
2022/04/18 10:44:08;;;;;;;7.50;5.65;;;;;;;22.06;34.53;101979.19;5023445;28;20027;-72
2022/04/18 10:46:36;;;;;;;7.28;4.93;;;;;;;21.96;33.82;101976.03;5020499;28;20057;-72
2022/04/18 10:49:04;;;;;;;6.28;5.50;;;;;;;22.49;33.80;101987.03;5028870;28;20025;-72
2022/04/18 10:51:40;;;;;;;7.15;5.70;;;;;;;22.34;34.81;101976.47;5025382;28;20032;-72
2022/04/18 10:54:11;;;;;;;7.45;5.50;;;;;;;22.82;35.37;101978.25;5024170;28;20421;-72
2022/04/18 10:56:50;;;;;;;7.15;5.38;;;;;;;23.58;31.76;101964.44;5026005;28;20052;-72
2022/04/18 10:59:19;;;;;;;7.72;5.00;;;;;;;23.08;33.62;101974.81;5027021;28;20059;-72
2022/04/18 11:01:45;;;;;;;5.65;4.78;;;;;;;22.34;34.02;101964.84;5025888;28;20036;-72
2022/04/18 11:04:11;;;;;;;5.90;4.72;;;;;;;22.50;33.35;101974.44;5017023;28;20022;-71
2022/04/18 11:06:36;;;;;;;7.05;5.03;;;;;;;21.63;33.90;101967.75;5025257;28;20100;-71
2022/04/18 11:09:08;;;;;;;5.75;4.68;;;;;;;22.21;32.88;101962.94;5025590;28;20496;-72
2022/04/18 11:11:44;;;;;;;5.60;4.28;;;;;;;23.32;31.88;101951.81;5025564;28;20030;-72
2022/04/18 11:14:47;;;;;;;6.47;4.88;;;;;;;22.99;32.10;101951.75;5026261;28;20111;-72
2022/04/18 11:17:13;;;;;;;6.50;4.75;;;;;;;23.72;31.45;101957.13;5023113;28;20046;-72
2022/04/18 11:19:40;;;;;;;5.57;4.18;;;;;;;23.08;30.93;101949.72;5017138;28;20061;-71
2022/04/18 11:22:09;;;;;;;7.68;4.65;;;;;;;22.74;30.22;101956.91;5023996;28;20037;-72
2022/04/18 11:24:55;;;;;;;5.65;4.60;;;;;;;23.64;30.67;101954.66;5026032;28;20026;-71
2022/04/18 11:27:26;;;;;;;5.30;4.35;;;;;;;22.86;31.99;101952.56;5022805;28;20036;-72
2022/04/18 11:30:00;;;;;;;6.45;4.30;;;;;;;23.35;30.15;101942.50;5027439;28;20033;-72
2022/04/18 11:32:31;;;;;;;6.88;4.90;;;;;;;22.79;31.35;101954.44;5020549;28;20116;-72
2022/04/18 11:34:58;;;;;;;5.47;4.28;;;;;;;23.83;32.47;101944.09;5026703;28;20372;-71
2022/04/18 11:37:34;;;;;;;5.45;4.50;;;;;;;23.98;29.80;101931.19;5025181;28;20069;-71
2022/04/18 11:40:02;;;;;;;5.25;4.10;;;;;;;22.66;30.64;101944.47;5020973;28;20057;-71
2022/04/18 11:42:30;;;;;;;6.22;3.83;;;;;;;22.73;30.00;101926.50;5021437;28;20033;-70
2022/04/18 11:44:57;;;;;;;5.05;4.20;;;;;;;22.27;30.46;101945.16;5024027;28;20029;-70
2022/04/18 11:47:28;;;;;;;5.22;3.88;;;;;;;21.66;31.10;101935.94;5022616;28;20025;-72
2022/04/18 11:50:00;;;;;;;6.63;4.15;;;;;;;22.06;31.63;101917.34;5023506;28;20026;-70
2022/04/18 11:52:27;;;;;;;7.03;4.68;;;;;;;22.47;31.03;101942.53;5024651;28;20116;-70
2022/04/18 11:54:54;;;;;;;4.50;4.07;;;;;;;23.59;29.77;101932.91;5024023;28;20741;-70
2022/04/18 11:57:19;;;;;;;5.30;4.32;;;;;;;22.48;31.29;101928.91;5024074;28;20033;-72